Pagina principale
METAR-TAF:

METAR-TAF

Aeroporti :

Lüderitz, Namibia

latitudine: 26-41S, longitudine: 015-15E, altezza: 130 m

Osservazione

Il bollettino è stato emesso 52 minuti fa, alle 13:00 UTC
Vento 16 kt da sud/sud-ovest
Temperature 26°C
Umidità 51%
Pressione 1013 hPa

METAR: FYLZ 111300Z AUTO 21016KT //// // ////// 26/15 Q1013

Ora: 15:52 (13:52 UTC)

Previsione

Il bollettino è stato emesso 2 ore e 52 minuti fa, alle 11:00 UTC
Previsione valida dal 11 alle 12 UTC al 11 alle 21 UTC
Vento 13 kt da sud/sud-ovest
Visibilità 10 km o più
nessuna nube inferiore a 1500 m e nessun cumulonembo

TAF: FYLZ 111100Z 1112/1121 20013KT CAVOK

Osservazioni e previsioni meteorologiche di più di 4000 aeroporti (messaggi METAR e TAF).

Le stazioni disponibili sono rappresentate dai dischi gialli e rossi sulla carta.

Puntare il mouse per vedere il nome della stazione.

Clicca sopra per visualizzare le osservazioni e previsioni meteorologiche.

Per cambiare la mappa : fare clic sui pulsanti verdi con una croce nera per ingrandire, il pulsante verde con un trattino per diminuire, o sulla freccia verde per le mappe adiacenti.


METAR-TAF: